sensor_id;sensor_type;location;lat;lon;timestamp;P1;durP1;ratioP1;P2;durP2;ratioP2
3971;SDS011;2000;47.572;14.202;2022-11-20T00:00:52;4.00;;;2.27;;
3971;SDS011;2000;47.572;14.202;2022-11-20T00:03:18;5.63;;;2.90;;
3971;SDS011;2000;47.572;14.202;2022-11-20T00:05:45;3.67;;;2.50;;
3971;SDS011;2000;47.572;14.202;2022-11-20T00:08:12;4.30;;;2.90;;
3971;SDS011;2000;47.572;14.202;2022-11-20T00:10:39;5.37;;;2.60;;
3971;SDS011;2000;47.572;14.202;2022-11-20T00:13:06;8.97;;;2.70;;
3971;SDS011;2000;47.572;14.202;2022-11-20T00:15:33;4.13;;;2.20;;
3971;SDS011;2000;47.572;14.202;2022-11-20T00:18:00;1.57;;;1.40;;
3971;SDS011;2000;47.572;14.202;2022-11-20T00:20:27;6.00;;;1.57;;
3971;SDS011;2000;47.572;14.202;2022-11-20T00:22:54;3.60;;;1.27;;
3971;SDS011;2000;47.572;14.202;2022-11-20T00:25:20;1.43;;;1.20;;
3971;SDS011;2000;47.572;14.202;2022-11-20T00:27:47;3.47;;;1.00;;
3971;SDS011;2000;47.572;14.202;2022-11-20T00:30:14;1.67;;;1.20;;
3971;SDS011;2000;47.572;14.202;2022-11-20T00:32:40;9.33;;;1.20;;
3971;SDS011;2000;47.572;14.202;2022-11-20T00:35:07;2.20;;;1.90;;
3971;SDS011;2000;47.572;14.202;2022-11-20T00:37:34;3.27;;;1.87;;
3971;SDS011;2000;47.572;14.202;2022-11-20T00:40:00;28.73;;;1.77;;
3971;SDS011;2000;47.572;14.202;2022-11-20T00:42:27;4.97;;;2.20;;
3971;SDS011;2000;47.572;14.202;2022-11-20T00:44:54;2.87;;;1.63;;
3971;SDS011;2000;47.572;14.202;2022-11-20T00:47:20;4.10;;;1.30;;
3971;SDS011;2000;47.572;14.202;2022-11-20T00:49:47;5.90;;;1.57;;
3971;SDS011;2000;47.572;14.202;2022-11-20T00:52:14;4.27;;;3.17;;
3971;SDS011;2000;47.572;14.202;2022-11-20T00:54:41;3.57;;;1.60;;
3971;SDS011;2000;47.572;14.202;2022-11-20T00:57:07;2.30;;;1.10;;
3971;SDS011;2000;47.572;14.202;2022-11-20T00:59:34;3.47;;;1.77;;
3971;SDS011;2000;47.572;14.202;2022-11-20T01:02:01;3.13;;;1.40;;
3971;SDS011;2000;47.572;14.202;2022-11-20T01:04:27;6.03;;;1.13;;
3971;SDS011;2000;47.572;14.202;2022-11-20T01:06:54;4.03;;;1.17;;
3971;SDS011;2000;47.572;14.202;2022-11-20T01:09:21;1.50;;;1.10;;
3971;SDS011;2000;47.572;14.202;2022-11-20T01:11:48;4.57;;;1.70;;
3971;SDS011;2000;47.572;14.202;2022-11-20T01:14:16;9.57;;;1.50;;
3971;SDS011;2000;47.572;14.202;2022-11-20T01:16:45;1.47;;;0.90;;
3971;SDS011;2000;47.572;14.202;2022-11-20T01:19:15;1.10;;;0.97;;
3971;SDS011;2000;47.572;14.202;2022-11-20T01:21:44;1.90;;;0.97;;
3971;SDS011;2000;47.572;14.202;2022-11-20T01:24:13;1.90;;;0.80;;
3971;SDS011;2000;47.572;14.202;2022-11-20T01:26:41;3.97;;;0.83;;
3971;SDS011;2000;47.572;14.202;2022-11-20T01:29:16;5.07;;;1.30;;
3971;SDS011;2000;47.572;14.202;2022-11-20T01:31:52;5.23;;;1.17;;
3971;SDS011;2000;47.572;14.202;2022-11-20T01:34:20;11.90;;;1.77;;
3971;SDS011;2000;47.572;14.202;2022-11-20T01:36:48;3.63;;;1.20;;
3971;SDS011;2000;47.572;14.202;2022-11-20T01:39:19;7.10;;;1.20;;
3971;SDS011;2000;47.572;14.202;2022-11-20T01:41:51;2.00;;;1.00;;
3971;SDS011;2000;47.572;14.202;2022-11-20T01:44:43;3.10;;;1.40;;
3971;SDS011;2000;47.572;14.202;2022-11-20T01:47:17;4.00;;;1.40;;
3971;SDS011;2000;47.572;14.202;2022-11-20T01:49:52;4.73;;;1.70;;
3971;SDS011;2000;47.572;14.202;2022-11-20T01:52:24;3.60;;;1.70;;
3971;SDS011;2000;47.572;14.202;2022-11-20T01:55:03;1.83;;;1.50;;
3971;SDS011;2000;47.572;14.202;2022-11-20T01:57:34;8.70;;;1.87;;
3971;SDS011;2000;47.572;14.202;2022-11-20T02:00:09;3.27;;;1.43;;
3971;SDS011;2000;47.572;14.202;2022-11-20T02:02:43;3.90;;;1.10;;
3971;SDS011;2000;47.572;14.202;2022-11-20T02:08:01;2.60;;;0.97;;
3971;SDS011;2000;47.572;14.202;2022-11-20T02:10:29;3.13;;;1.33;;
3971;SDS011;2000;47.572;14.202;2022-11-20T02:12:56;5.80;;;1.10;;
3971;SDS011;2000;47.572;14.202;2022-11-20T02:15:41;1.70;;;1.20;;
3971;SDS011;2000;47.572;14.202;2022-11-20T02:18:09;6.00;;;1.73;;
3971;SDS011;2000;47.572;14.202;2022-11-20T02:20:36;2.90;;;1.73;;
3971;SDS011;2000;47.572;14.202;2022-11-20T02:25:39;11.50;;;1.33;;
3971;SDS011;2000;47.572;14.202;2022-11-20T02:28:07;6.77;;;2.33;;
3971;SDS011;2000;47.572;14.202;2022-11-20T02:30:34;4.17;;;1.37;;
3971;SDS011;2000;47.572;14.202;2022-11-20T02:33:01;2.20;;;1.60;;
3971;SDS011;2000;47.572;14.202;2022-11-20T02:37:55;14.80;;;1.47;;
3971;SDS011;2000;47.572;14.202;2022-11-20T02:40:23;5.50;;;1.30;;
3971;SDS011;2000;47.572;14.202;2022-11-20T02:42:53;2.87;;;1.17;;
3971;SDS011;2000;47.572;14.202;2022-11-20T02:45:21;4.30;;;3.90;;
3971;SDS011;2000;47.572;14.202;2022-11-20T02:47:49;1.73;;;0.90;;
3971;SDS011;2000;47.572;14.202;2022-11-20T02:50:16;6.27;;;1.03;;
3971;SDS011;2000;47.572;14.202;2022-11-20T02:52:43;3.20;;;0.97;;
3971;SDS011;2000;47.572;14.202;2022-11-20T02:55:09;3.13;;;0.60;;
3971;SDS011;2000;47.572;14.202;2022-11-20T02:57:36;9.73;;;0.67;;
3971;SDS011;2000;47.572;14.202;2022-11-20T03:00:04;10.83;;;0.97;;
3971;SDS011;2000;47.572;14.202;2022-11-20T03:02:33;2.13;;;1.10;;
3971;SDS011;2000;47.572;14.202;2022-11-20T03:05:00;1.57;;;1.33;;
3971;SDS011;2000;47.572;14.202;2022-11-20T03:07:26;3.50;;;1.53;;
3971;SDS011;2000;47.572;14.202;2022-11-20T03:09:53;1.10;;;1.10;;
3971;SDS011;2000;47.572;14.202;2022-11-20T03:12:20;1.37;;;0.90;;
3971;SDS011;2000;47.572;14.202;2022-11-20T03:14:47;5.40;;;1.93;;
3971;SDS011;2000;47.572;14.202;2022-11-20T03:17:18;4.93;;;1.17;;
3971;SDS011;2000;47.572;14.202;2022-11-20T03:19:45;7.70;;;0.77;;
3971;SDS011;2000;47.572;14.202;2022-11-20T03:22:11;3.20;;;0.80;;
3971;SDS011;2000;47.572;14.202;2022-11-20T03:24:38;1.40;;;0.83;;
3971;SDS011;2000;47.572;14.202;2022-11-20T03:27:05;1.37;;;0.70;;
3971;SDS011;2000;47.572;14.202;2022-11-20T03:29:31;2.20;;;1.10;;
3971;SDS011;2000;47.572;14.202;2022-11-20T03:31:58;4.53;;;1.00;;
3971;SDS011;2000;47.572;14.202;2022-11-20T03:34:25;1.40;;;0.60;;
3971;SDS011;2000;47.572;14.202;2022-11-20T03:36:52;1.40;;;1.30;;
3971;SDS011;2000;47.572;14.202;2022-11-20T03:39:19;2.00;;;1.67;;
3971;SDS011;2000;47.572;14.202;2022-11-20T03:41:46;7.13;;;0.97;;
3971;SDS011;2000;47.572;14.202;2022-11-20T03:44:12;3.70;;;0.73;;
3971;SDS011;2000;47.572;14.202;2022-11-20T03:46:39;1.47;;;0.90;;
3971;SDS011;2000;47.572;14.202;2022-11-20T03:49:06;3.93;;;1.00;;
3971;SDS011;2000;47.572;14.202;2022-11-20T03:51:34;3.77;;;1.27;;
3971;SDS011;2000;47.572;14.202;2022-11-20T03:54:08;5.03;;;1.43;;
3971;SDS011;2000;47.572;14.202;2022-11-20T03:56:36;2.13;;;1.13;;
3971;SDS011;2000;47.572;14.202;2022-11-20T03:59:03;1.67;;;1.10;;
3971;SDS011;2000;47.572;14.202;2022-11-20T04:01:31;1.90;;;1.13;;
3971;SDS011;2000;47.572;14.202;2022-11-20T04:03:59;1.80;;;1.03;;
3971;SDS011;2000;47.572;14.202;2022-11-20T04:06:32;1.27;;;1.17;;
3971;SDS011;2000;47.572;14.202;2022-11-20T04:09:00;1.97;;;0.70;;
3971;SDS011;2000;47.572;14.202;2022-11-20T04:11:28;1.83;;;1.30;;
3971;SDS011;2000;47.572;14.202;2022-11-20T04:13:57;1.60;;;1.43;;
3971;SDS011;2000;47.572;14.202;2022-11-20T04:16:25;1.20;;;1.10;;
3971;SDS011;2000;47.572;14.202;2022-11-20T04:18:53;1.20;;;1.10;;
3971;SDS011;2000;47.572;14.202;2022-11-20T04:21:20;3.63;;;1.20;;
3971;SDS011;2000;47.572;14.202;2022-11-20T04:23:47;3.33;;;1.47;;
3971;SDS011;2000;47.572;14.202;2022-11-20T04:26:14;2.60;;;1.90;;
3971;SDS011;2000;47.572;14.202;2022-11-20T04:28:41;4.70;;;1.23;;
3971;SDS011;2000;47.572;14.202;2022-11-20T04:31:09;2.90;;;1.07;;
3971;SDS011;2000;47.572;14.202;2022-11-20T04:33:40;1.50;;;0.97;;
3971;SDS011;2000;47.572;14.202;2022-11-20T04:36:09;2.27;;;1.30;;
3971;SDS011;2000;47.572;14.202;2022-11-20T04:38:38;1.20;;;0.80;;
3971;SDS011;2000;47.572;14.202;2022-11-20T04:41:06;1.10;;;1.00;;
3971;SDS011;2000;47.572;14.202;2022-11-20T04:43:33;1.60;;;1.03;;
3971;SDS011;2000;47.572;14.202;2022-11-20T04:46:00;0.73;;;0.73;;
3971;SDS011;2000;47.572;14.202;2022-11-20T04:48:28;3.13;;;0.70;;
3971;SDS011;2000;47.572;14.202;2022-11-20T04:50:55;1.90;;;1.30;;
3971;SDS011;2000;47.572;14.202;2022-11-20T04:53:23;2.37;;;1.33;;
3971;SDS011;2000;47.572;14.202;2022-11-20T04:55:50;1.70;;;0.83;;
3971;SDS011;2000;47.572;14.202;2022-11-20T04:58:17;2.20;;;0.93;;
3971;SDS011;2000;47.572;14.202;2022-11-20T05:00:44;1.50;;;0.87;;
3971;SDS011;2000;47.572;14.202;2022-11-20T05:03:11;3.00;;;0.93;;
3971;SDS011;2000;47.572;14.202;2022-11-20T05:05:38;1.07;;;0.50;;
3971;SDS011;2000;47.572;14.202;2022-11-20T05:08:04;1.20;;;0.87;;
3971;SDS011;2000;47.572;14.202;2022-11-20T05:10:31;7.53;;;0.80;;
3971;SDS011;2000;47.572;14.202;2022-11-20T05:12:58;1.97;;;0.90;;
3971;SDS011;2000;47.572;14.202;2022-11-20T05:15:24;2.07;;;0.57;;
3971;SDS011;2000;47.572;14.202;2022-11-20T05:17:51;1.10;;;0.90;;
3971;SDS011;2000;47.572;14.202;2022-11-20T05:20:18;0.93;;;0.40;;
3971;SDS011;2000;47.572;14.202;2022-11-20T05:22:45;0.60;;;0.60;;
3971;SDS011;2000;47.572;14.202;2022-11-20T05:25:12;0.50;;;0.50;;
3971;SDS011;2000;47.572;14.202;2022-11-20T05:27:39;0.80;;;0.80;;
3971;SDS011;2000;47.572;14.202;2022-11-20T05:30:06;2.30;;;0.40;;
3971;SDS011;2000;47.572;14.202;2022-11-20T05:32:33;0.53;;;0.50;;
3971;SDS011;2000;47.572;14.202;2022-11-20T05:34:59;0.67;;;0.67;;
3971;SDS011;2000;47.572;14.202;2022-11-20T05:37:26;3.40;;;0.80;;
3971;SDS011;2000;47.572;14.202;2022-11-20T05:39:53;0.77;;;0.70;;
3971;SDS011;2000;47.572;14.202;2022-11-20T05:42:19;0.87;;;0.57;;
3971;SDS011;2000;47.572;14.202;2022-11-20T05:44:58;7.43;;;1.17;;
3971;SDS011;2000;47.572;14.202;2022-11-20T05:47:26;0.87;;;0.60;;
3971;SDS011;2000;47.572;14.202;2022-11-20T05:49:53;2.93;;;0.50;;
3971;SDS011;2000;47.572;14.202;2022-11-20T05:52:20;1.70;;;0.83;;
3971;SDS011;2000;47.572;14.202;2022-11-20T05:54:47;0.67;;;0.67;;
3971;SDS011;2000;47.572;14.202;2022-11-20T05:57:14;2.83;;;0.87;;
3971;SDS011;2000;47.572;14.202;2022-11-20T05:59:40;2.13;;;1.00;;
3971;SDS011;2000;47.572;14.202;2022-11-20T06:02:07;4.03;;;1.10;;
3971;SDS011;2000;47.572;14.202;2022-11-20T06:04:34;1.70;;;1.30;;
3971;SDS011;2000;47.572;14.202;2022-11-20T06:07:00;1.90;;;1.50;;
3971;SDS011;2000;47.572;14.202;2022-11-20T06:09:27;1.30;;;1.30;;
3971;SDS011;2000;47.572;14.202;2022-11-20T06:11:53;1.17;;;1.07;;
3971;SDS011;2000;47.572;14.202;2022-11-20T06:14:20;1.43;;;1.27;;
3971;SDS011;2000;47.572;14.202;2022-11-20T06:16:47;1.30;;;1.20;;
3971;SDS011;2000;47.572;14.202;2022-11-20T06:19:13;4.70;;;1.60;;
3971;SDS011;2000;47.572;14.202;2022-11-20T06:21:41;1.50;;;1.20;;
3971;SDS011;2000;47.572;14.202;2022-11-20T06:24:09;2.83;;;1.30;;
3971;SDS011;2000;47.572;14.202;2022-11-20T06:26:36;2.30;;;1.37;;
3971;SDS011;2000;47.572;14.202;2022-11-20T06:29:03;2.37;;;1.27;;
3971;SDS011;2000;47.572;14.202;2022-11-20T06:31:29;2.47;;;1.37;;
3971;SDS011;2000;47.572;14.202;2022-11-20T06:33:59;2.93;;;1.00;;
3971;SDS011;2000;47.572;14.202;2022-11-20T06:36:25;6.80;;;1.00;;
3971;SDS011;2000;47.572;14.202;2022-11-20T06:38:52;2.30;;;0.80;;
3971;SDS011;2000;47.572;14.202;2022-11-20T06:41:19;7.33;;;1.10;;
3971;SDS011;2000;47.572;14.202;2022-11-20T06:43:47;7.30;;;1.23;;
3971;SDS011;2000;47.572;14.202;2022-11-20T06:46:15;1.00;;;0.83;;
3971;SDS011;2000;47.572;14.202;2022-11-20T06:48:46;1.10;;;0.80;;
3971;SDS011;2000;47.572;14.202;2022-11-20T06:51:13;4.43;;;1.33;;
3971;SDS011;2000;47.572;14.202;2022-11-20T06:53:40;1.30;;;1.10;;
3971;SDS011;2000;47.572;14.202;2022-11-20T06:56:07;3.13;;;0.70;;
3971;SDS011;2000;47.572;14.202;2022-11-20T06:58:34;1.63;;;0.80;;
3971;SDS011;2000;47.572;14.202;2022-11-20T07:01:04;35.77;;;21.10;;
3971;SDS011;2000;47.572;14.202;2022-11-20T07:03:35;124.70;;;63.50;;
3971;SDS011;2000;47.572;14.202;2022-11-20T07:06:02;104.43;;;48.50;;
3971;SDS011;2000;47.572;14.202;2022-11-20T07:08:30;124.20;;;63.30;;
3971;SDS011;2000;47.572;14.202;2022-11-20T07:10:57;36.17;;;16.70;;
3971;SDS011;2000;47.572;14.202;2022-11-20T07:13:26;44.20;;;23.30;;
3971;SDS011;2000;47.572;14.202;2022-11-20T07:15:53;42.47;;;23.50;;
3971;SDS011;2000;47.572;14.202;2022-11-20T07:18:20;17.83;;;9.80;;
3971;SDS011;2000;47.572;14.202;2022-11-20T07:20:47;25.93;;;9.60;;
3971;SDS011;2000;47.572;14.202;2022-11-20T07:23:13;11.63;;;7.97;;
3971;SDS011;2000;47.572;14.202;2022-11-20T07:25:40;17.33;;;8.97;;
3971;SDS011;2000;47.572;14.202;2022-11-20T07:28:07;15.20;;;9.63;;
3971;SDS011;2000;47.572;14.202;2022-11-20T07:30:33;10.67;;;5.20;;
3971;SDS011;2000;47.572;14.202;2022-11-20T07:33:00;7.37;;;3.30;;
3971;SDS011;2000;47.572;14.202;2022-11-20T07:35:27;13.87;;;2.30;;
3971;SDS011;2000;47.572;14.202;2022-11-20T07:37:53;2.80;;;1.63;;
3971;SDS011;2000;47.572;14.202;2022-11-20T07:40:20;5.00;;;1.57;;
3971;SDS011;2000;47.572;14.202;2022-11-20T07:42:47;7.20;;;1.73;;
3971;SDS011;2000;47.572;14.202;2022-11-20T07:45:15;2.30;;;1.57;;
3971;SDS011;2000;47.572;14.202;2022-11-20T07:47:43;15.63;;;3.50;;
3971;SDS011;2000;47.572;14.202;2022-11-20T07:50:10;7.27;;;2.83;;
3971;SDS011;2000;47.572;14.202;2022-11-20T07:52:37;5.60;;;2.33;;
3971;SDS011;2000;47.572;14.202;2022-11-20T07:55:04;11.00;;;8.63;;
3971;SDS011;2000;47.572;14.202;2022-11-20T07:57:31;16.73;;;12.70;;
3971;SDS011;2000;47.572;14.202;2022-11-20T07:59:58;13.27;;;6.00;;
3971;SDS011;2000;47.572;14.202;2022-11-20T08:02:25;3.53;;;1.80;;
3971;SDS011;2000;47.572;14.202;2022-11-20T08:04:51;4.70;;;1.50;;
3971;SDS011;2000;47.572;14.202;2022-11-20T08:07:18;0.90;;;0.90;;
3971;SDS011;2000;47.572;14.202;2022-11-20T08:09:45;2.20;;;0.80;;
3971;SDS011;2000;47.572;14.202;2022-11-20T08:12:18;1.40;;;1.30;;
3971;SDS011;2000;47.572;14.202;2022-11-20T08:15:05;2.80;;;1.10;;
3971;SDS011;2000;47.572;14.202;2022-11-20T08:17:37;1.00;;;0.83;;
3971;SDS011;2000;47.572;14.202;2022-11-20T08:20:04;0.70;;;0.70;;
3971;SDS011;2000;47.572;14.202;2022-11-20T08:22:31;2.73;;;1.67;;
3971;SDS011;2000;47.572;14.202;2022-11-20T08:24:58;1.33;;;0.80;;
3971;SDS011;2000;47.572;14.202;2022-11-20T08:27:25;0.80;;;0.63;;
3971;SDS011;2000;47.572;14.202;2022-11-20T08:29:51;1.00;;;1.00;;
3971;SDS011;2000;47.572;14.202;2022-11-20T08:32:18;1.13;;;0.80;;
3971;SDS011;2000;47.572;14.202;2022-11-20T08:34:45;1.90;;;1.20;;
3971;SDS011;2000;47.572;14.202;2022-11-20T08:37:12;0.93;;;0.80;;
3971;SDS011;2000;47.572;14.202;2022-11-20T08:39:39;2.53;;;1.00;;
3971;SDS011;2000;47.572;14.202;2022-11-20T08:42:06;1.80;;;1.53;;
3971;SDS011;2000;47.572;14.202;2022-11-20T08:44:34;1.93;;;1.43;;
3971;SDS011;2000;47.572;14.202;2022-11-20T08:47:01;1.33;;;1.23;;
3971;SDS011;2000;47.572;14.202;2022-11-20T08:49:27;0.70;;;0.70;;
3971;SDS011;2000;47.572;14.202;2022-11-20T08:51:54;1.20;;;1.10;;
3971;SDS011;2000;47.572;14.202;2022-11-20T08:54:21;0.70;;;0.63;;
3971;SDS011;2000;47.572;14.202;2022-11-20T08:56:48;1.03;;;0.93;;
3971;SDS011;2000;47.572;14.202;2022-11-20T08:59:15;0.83;;;0.63;;
3971;SDS011;2000;47.572;14.202;2022-11-20T09:01:56;1.13;;;0.70;;
3971;SDS011;2000;47.572;14.202;2022-11-20T09:04:23;0.80;;;0.80;;
3971;SDS011;2000;47.572;14.202;2022-11-20T09:06:50;2.10;;;1.90;;
3971;SDS011;2000;47.572;14.202;2022-11-20T09:09:17;24.93;;;9.63;;
3971;SDS011;2000;47.572;14.202;2022-11-20T09:11:45;1.63;;;1.43;;
3971;SDS011;2000;47.572;14.202;2022-11-20T09:14:12;7.23;;;3.97;;
3971;SDS011;2000;47.572;14.202;2022-11-20T09:16:39;13.17;;;6.50;;
3971;SDS011;2000;47.572;14.202;2022-11-20T09:19:05;15.17;;;7.30;;
3971;SDS011;2000;47.572;14.202;2022-11-20T09:21:52;4.20;;;2.80;;
3971;SDS011;2000;47.572;14.202;2022-11-20T09:24:25;11.63;;;5.43;;
3971;SDS011;2000;47.572;14.202;2022-11-20T09:26:52;9.30;;;3.83;;
3971;SDS011;2000;47.572;14.202;2022-11-20T09:29:19;1.63;;;1.53;;
3971;SDS011;2000;47.572;14.202;2022-11-20T09:31:46;6.03;;;3.07;;
3971;SDS011;2000;47.572;14.202;2022-11-20T09:34:13;29.83;;;10.30;;
3971;SDS011;2000;47.572;14.202;2022-11-20T09:36:39;59.60;;;16.87;;
3971;SDS011;2000;47.572;14.202;2022-11-20T09:39:06;34.63;;;10.10;;
3971;SDS011;2000;47.572;14.202;2022-11-20T09:44:51;6.83;;;3.00;;
3971;SDS011;2000;47.572;14.202;2022-11-20T09:50:31;37.13;;;14.67;;
3971;SDS011;2000;47.572;14.202;2022-11-20T09:56:17;18.90;;;7.53;;
3971;SDS011;2000;47.572;14.202;2022-11-20T09:58:49;16.17;;;7.97;;
3971;SDS011;2000;47.572;14.202;2022-11-20T10:01:18;41.90;;;15.17;;
3971;SDS011;2000;47.572;14.202;2022-11-20T10:06:29;23.60;;;9.50;;
3971;SDS011;2000;47.572;14.202;2022-11-20T10:09:06;6.37;;;3.20;;
3971;SDS011;2000;47.572;14.202;2022-11-20T10:11:46;10.13;;;5.10;;
3971;SDS011;2000;47.572;14.202;2022-11-20T10:32:45;2.73;;;1.17;;
3971;SDS011;2000;47.572;14.202;2022-11-20T10:37:41;8.33;;;1.57;;
3971;SDS011;2000;47.572;14.202;2022-11-20T10:45:48;6.23;;;2.20;;
3971;SDS011;2000;47.572;14.202;2022-11-20T10:48:23;16.97;;;5.10;;
3971;SDS011;2000;47.572;14.202;2022-11-20T10:50:57;1.17;;;1.07;;
3971;SDS011;2000;47.572;14.202;2022-11-20T10:53:37;0.90;;;0.70;;
3971;SDS011;2000;47.572;14.202;2022-11-20T11:01:29;0.67;;;0.67;;
3971;SDS011;2000;47.572;14.202;2022-11-20T11:03:56;1.70;;;1.40;;
3971;SDS011;2000;47.572;14.202;2022-11-20T11:06:37;1.07;;;1.00;;
3971;SDS011;2000;47.572;14.202;2022-11-20T11:09:11;1.33;;;1.17;;
3971;SDS011;2000;47.572;14.202;2022-11-20T11:11:42;1.33;;;0.70;;
3971;SDS011;2000;47.572;14.202;2022-11-20T11:14:13;5.83;;;1.70;;
3971;SDS011;2000;47.572;14.202;2022-11-20T11:16:49;6.80;;;1.60;;
3971;SDS011;2000;47.572;14.202;2022-11-20T11:19:17;11.27;;;6.67;;
3971;SDS011;2000;47.572;14.202;2022-11-20T11:21:45;17.20;;;8.83;;
3971;SDS011;2000;47.572;14.202;2022-11-20T11:24:24;18.70;;;8.57;;
3971;SDS011;2000;47.572;14.202;2022-11-20T11:27:11;30.70;;;10.30;;
3971;SDS011;2000;47.572;14.202;2022-11-20T11:29:43;7.40;;;3.10;;
3971;SDS011;2000;47.572;14.202;2022-11-20T11:32:14;11.30;;;2.70;;
3971;SDS011;2000;47.572;14.202;2022-11-20T11:34:43;9.47;;;3.53;;
3971;SDS011;2000;47.572;14.202;2022-11-20T11:37:20;1.30;;;1.20;;
3971;SDS011;2000;47.572;14.202;2022-11-20T11:39:50;30.10;;;9.93;;
3971;SDS011;2000;47.572;14.202;2022-11-20T11:42:41;2.53;;;1.40;;
3971;SDS011;2000;47.572;14.202;2022-11-20T11:45:17;5.77;;;2.57;;
3971;SDS011;2000;47.572;14.202;2022-11-20T12:00:54;12.33;;;5.60;;
3971;SDS011;2000;47.572;14.202;2022-11-20T12:03:29;6.87;;;2.33;;
3971;SDS011;2000;47.572;14.202;2022-11-20T12:06:05;35.30;;;2.10;;
3971;SDS011;2000;47.572;14.202;2022-11-20T12:11:54;3.23;;;2.07;;
3971;SDS011;2000;47.572;14.202;2022-11-20T12:14:27;47.37;;;14.83;;
3971;SDS011;2000;47.572;14.202;2022-11-20T12:17:02;8.97;;;3.10;;
3971;SDS011;2000;47.572;14.202;2022-11-20T12:19:30;2.10;;;1.70;;
3971;SDS011;2000;47.572;14.202;2022-11-20T12:22:05;1.10;;;0.93;;
3971;SDS011;2000;47.572;14.202;2022-11-20T12:37:52;1.93;;;1.77;;
3971;SDS011;2000;47.572;14.202;2022-11-20T12:43:37;5.30;;;3.17;;
3971;SDS011;2000;47.572;14.202;2022-11-20T12:46:08;15.30;;;6.00;;
3971;SDS011;2000;47.572;14.202;2022-11-20T12:48:50;1.23;;;0.80;;
3971;SDS011;2000;47.572;14.202;2022-11-20T13:08:18;17.00;;;7.50;;
3971;SDS011;2000;47.572;14.202;2022-11-20T13:13:29;19.63;;;9.73;;
3971;SDS011;2000;47.572;14.202;2022-11-20T13:16:08;2.60;;;1.23;;
3971;SDS011;2000;47.572;14.202;2022-11-20T13:18:40;2.97;;;1.60;;
3971;SDS011;2000;47.572;14.202;2022-11-20T13:21:15;4.13;;;2.37;;
3971;SDS011;2000;47.572;14.202;2022-11-20T13:23:47;6.50;;;2.90;;
3971;SDS011;2000;47.572;14.202;2022-11-20T13:26:15;16.10;;;8.53;;
3971;SDS011;2000;47.572;14.202;2022-11-20T13:28:44;20.23;;;8.53;;
3971;SDS011;2000;47.572;14.202;2022-11-20T13:31:33;5.23;;;4.20;;
3971;SDS011;2000;47.572;14.202;2022-11-20T13:34:01;6.23;;;2.57;;
3971;SDS011;2000;47.572;14.202;2022-11-20T13:36:29;12.90;;;7.00;;
3971;SDS011;2000;47.572;14.202;2022-11-20T13:38:57;3.87;;;1.13;;
3971;SDS011;2000;47.572;14.202;2022-11-20T13:44:13;3.20;;;1.60;;
3971;SDS011;2000;47.572;14.202;2022-11-20T13:46:48;0.50;;;0.37;;
3971;SDS011;2000;47.572;14.202;2022-11-20T13:49:17;1.53;;;1.27;;
3971;SDS011;2000;47.572;14.202;2022-11-20T13:51:47;1.33;;;0.50;;
3971;SDS011;2000;47.572;14.202;2022-11-20T13:57:18;1.10;;;1.00;;
3971;SDS011;2000;47.572;14.202;2022-11-20T13:59:57;2.07;;;0.67;;
3971;SDS011;2000;47.572;14.202;2022-11-20T14:02:27;1.47;;;1.00;;
3971;SDS011;2000;47.572;14.202;2022-11-20T14:04:56;19.43;;;8.80;;
3971;SDS011;2000;47.572;14.202;2022-11-20T14:07:27;2.90;;;1.53;;
3971;SDS011;2000;47.572;14.202;2022-11-20T14:10:00;9.30;;;3.77;;
3971;SDS011;2000;47.572;14.202;2022-11-20T14:12:30;17.13;;;6.00;;
3971;SDS011;2000;47.572;14.202;2022-11-20T14:14:59;8.03;;;3.03;;
3971;SDS011;2000;47.572;14.202;2022-11-20T14:17:30;3.30;;;1.83;;
3971;SDS011;2000;47.572;14.202;2022-11-20T14:20:03;6.00;;;2.97;;
3971;SDS011;2000;47.572;14.202;2022-11-20T14:22:31;3.60;;;2.33;;
3971;SDS011;2000;47.572;14.202;2022-11-20T14:27:41;1.70;;;0.50;;
3971;SDS011;2000;47.572;14.202;2022-11-20T14:30:12;1.90;;;0.60;;
3971;SDS011;2000;47.572;14.202;2022-11-20T14:32:42;11.20;;;5.70;;
3971;SDS011;2000;47.572;14.202;2022-11-20T14:35:10;7.03;;;2.57;;
3971;SDS011;2000;47.572;14.202;2022-11-20T14:37:49;2.57;;;1.80;;
3971;SDS011;2000;47.572;14.202;2022-11-20T14:40:27;6.40;;;3.00;;
3971;SDS011;2000;47.572;14.202;2022-11-20T14:42:55;1.13;;;1.10;;
3971;SDS011;2000;47.572;14.202;2022-11-20T14:45:22;5.43;;;4.33;;
3971;SDS011;2000;47.572;14.202;2022-11-20T14:47:51;3.83;;;3.23;;
3971;SDS011;2000;47.572;14.202;2022-11-20T14:50:22;9.33;;;4.87;;
3971;SDS011;2000;47.572;14.202;2022-11-20T14:52:57;5.53;;;3.33;;
3971;SDS011;2000;47.572;14.202;2022-11-20T14:55:29;2.03;;;1.17;;
3971;SDS011;2000;47.572;14.202;2022-11-20T14:58:00;2.03;;;1.00;;
3971;SDS011;2000;47.572;14.202;2022-11-20T15:00:31;8.43;;;1.60;;
3971;SDS011;2000;47.572;14.202;2022-11-20T15:02:59;2.50;;;2.23;;
3971;SDS011;2000;47.572;14.202;2022-11-20T15:05:44;5.23;;;2.80;;
3971;SDS011;2000;47.572;14.202;2022-11-20T15:08:13;1.40;;;1.30;;
3971;SDS011;2000;47.572;14.202;2022-11-20T15:10:50;3.00;;;2.13;;
3971;SDS011;2000;47.572;14.202;2022-11-20T15:13:30;3.80;;;1.80;;
3971;SDS011;2000;47.572;14.202;2022-11-20T15:15:59;1.70;;;0.73;;
3971;SDS011;2000;47.572;14.202;2022-11-20T15:18:31;2.00;;;0.50;;
3971;SDS011;2000;47.572;14.202;2022-11-20T15:21:01;0.63;;;0.40;;
3971;SDS011;2000;47.572;14.202;2022-11-20T15:23:28;1.63;;;0.40;;
3971;SDS011;2000;47.572;14.202;2022-11-20T15:25:55;3.03;;;0.50;;
3971;SDS011;2000;47.572;14.202;2022-11-20T15:31:21;1.07;;;0.50;;
3971;SDS011;2000;47.572;14.202;2022-11-20T15:33:49;0.50;;;0.30;;
3971;SDS011;2000;47.572;14.202;2022-11-20T15:36:16;7.47;;;0.60;;
3971;SDS011;2000;47.572;14.202;2022-11-20T15:38:43;5.00;;;0.40;;
3971;SDS011;2000;47.572;14.202;2022-11-20T15:41:10;2.93;;;0.80;;
3971;SDS011;2000;47.572;14.202;2022-11-20T15:43:36;5.87;;;1.00;;
3971;SDS011;2000;47.572;14.202;2022-11-20T15:46:09;0.40;;;0.40;;
3971;SDS011;2000;47.572;14.202;2022-11-20T15:48:39;0.57;;;0.57;;
3971;SDS011;2000;47.572;14.202;2022-11-20T15:51:21;0.73;;;0.40;;
3971;SDS011;2000;47.572;14.202;2022-11-20T15:53:55;0.77;;;0.20;;
3971;SDS011;2000;47.572;14.202;2022-11-20T15:56:22;0.67;;;0.50;;
3971;SDS011;2000;47.572;14.202;2022-11-20T15:58:49;34.20;;;11.77;;
3971;SDS011;2000;47.572;14.202;2022-11-20T16:01:17;18.63;;;6.77;;
3971;SDS011;2000;47.572;14.202;2022-11-20T16:03:45;45.17;;;13.40;;
3971;SDS011;2000;47.572;14.202;2022-11-20T16:06:12;20.33;;;8.00;;
3971;SDS011;2000;47.572;14.202;2022-11-20T16:08:39;16.77;;;6.90;;
3971;SDS011;2000;47.572;14.202;2022-11-20T16:11:06;8.10;;;3.47;;
3971;SDS011;2000;47.572;14.202;2022-11-20T16:13:35;3.43;;;2.00;;
3971;SDS011;2000;47.572;14.202;2022-11-20T16:16:34;5.33;;;1.93;;
3971;SDS011;2000;47.572;14.202;2022-11-20T16:19:02;15.37;;;2.17;;
3971;SDS011;2000;47.572;14.202;2022-11-20T16:21:29;16.03;;;3.00;;
3971;SDS011;2000;47.572;14.202;2022-11-20T16:24:02;5.53;;;2.03;;
3971;SDS011;2000;47.572;14.202;2022-11-20T16:26:31;2.50;;;1.23;;
3971;SDS011;2000;47.572;14.202;2022-11-20T16:28:59;0.80;;;0.60;;
3971;SDS011;2000;47.572;14.202;2022-11-20T16:31:26;1.23;;;0.70;;
3971;SDS011;2000;47.572;14.202;2022-11-20T16:33:54;0.60;;;0.50;;
3971;SDS011;2000;47.572;14.202;2022-11-20T16:36:22;2.30;;;0.40;;
3971;SDS011;2000;47.572;14.202;2022-11-20T16:38:54;0.70;;;0.40;;
3971;SDS011;2000;47.572;14.202;2022-11-20T16:41:22;0.57;;;0.30;;
3971;SDS011;2000;47.572;14.202;2022-11-20T16:43:51;1.43;;;0.63;;
3971;SDS011;2000;47.572;14.202;2022-11-20T16:46:20;6.80;;;0.50;;
3971;SDS011;2000;47.572;14.202;2022-11-20T16:48:55;1.60;;;0.80;;
3971;SDS011;2000;47.572;14.202;2022-11-20T16:51:23;3.40;;;0.60;;
3971;SDS011;2000;47.572;14.202;2022-11-20T16:53:51;5.23;;;2.23;;
3971;SDS011;2000;47.572;14.202;2022-11-20T16:56:19;3.80;;;1.47;;
3971;SDS011;2000;47.572;14.202;2022-11-20T16:58:47;4.37;;;1.70;;
3971;SDS011;2000;47.572;14.202;2022-11-20T17:01:19;1.37;;;0.80;;
3971;SDS011;2000;47.572;14.202;2022-11-20T17:03:53;7.27;;;1.20;;
3971;SDS011;2000;47.572;14.202;2022-11-20T17:06:21;4.20;;;2.17;;